Time;durP1;ratioP1;P1;durP2;ratioP2;P2;SDS_P1;SDS_P2;PMS_P1;PMS_P2;Temp;Humidity;BMP_temperature;BMP_pressure;BME280_temperature;BME280_humidity;BME280_pressure;Samples;Min_cycle;Max_cycle;Signal;HPM_P1;HPM_P2
2021/10/01 00:01:05;;;;;;;5.22;1.65;;;12.50;91.70;;;;;;4992071;28;20033;-69
2021/10/01 00:03:31;;;;;;;3.75;1.27;;;12.50;91.80;;;;;;5001189;28;20057;-70
2021/10/01 00:05:57;;;;;;;3.83;1.50;;;12.50;91.80;;;;;;4983566;28;20061;-69
2021/10/01 00:08:22;;;;;;;5.50;1.30;;;12.60;91.50;;;;;;5007163;28;20061;-69
2021/10/01 00:10:48;;;;;;;4.68;1.33;;;12.60;91.70;;;;;;5004330;28;20053;-69
2021/10/01 00:13:14;;;;;;;3.63;1.33;;;12.50;91.50;;;;;;5005269;28;21646;-69
2021/10/01 00:15:39;;;;;;;4.47;1.08;;;12.50;91.40;;;;;;5005050;28;20036;-69
2021/10/01 00:18:05;;;;;;;5.78;1.83;;;12.50;91.80;;;;;;5007955;28;20108;-69
2021/10/01 00:20:31;;;;;;;4.68;1.30;;;12.60;91.50;;;;;;5008700;28;20026;-69
2021/10/01 00:22:57;;;;;;;4.78;1.58;;;12.60;91.50;;;;;;5007823;28;20048;-69
2021/10/01 00:25:23;;;;;;;2.85;1.55;;;12.60;91.30;;;;;;5008458;28;20038;-69
2021/10/01 00:27:49;;;;;;;5.03;1.15;;;12.60;91.50;;;;;;4989588;28;20025;-69
2021/10/01 00:30:15;;;;;;;4.30;1.90;;;12.60;91.50;;;;;;5007759;28;20069;-69
2021/10/01 00:32:41;;;;;;;3.58;1.42;;;12.50;91.60;;;;;;5008464;28;20033;-69
2021/10/01 00:35:07;;;;;;;5.10;1.30;;;12.50;92.00;;;;;;5006743;28;20030;-69
2021/10/01 00:37:32;;;;;;;7.50;1.27;;;12.50;92.00;;;;;;5008109;28;20022;-69
2021/10/01 00:39:58;;;;;;;8.85;1.77;;;12.50;92.10;;;;;;5006983;28;20061;-69
2021/10/01 00:42:24;;;;;;;9.05;1.33;;;12.50;92.00;;;;;;5006640;28;20510;-69
2021/10/01 00:44:50;;;;;;;7.20;1.60;;;12.50;92.20;;;;;;5008587;28;20028;-69
2021/10/01 00:47:16;;;;;;;7.78;1.60;;;12.50;92.10;;;;;;5005651;28;20038;-69
2021/10/01 00:49:42;;;;;;;7.18;1.40;;;12.50;92.20;;;;;;4989910;28;20034;-69
2021/10/01 00:52:08;;;;;;;3.25;1.30;;;12.50;92.00;;;;;;5005879;28;20034;-70
2021/10/01 00:54:37;;;;;;;7.63;1.80;;;12.40;92.10;;;;;;4990259;28;20108;-69
2021/10/01 00:57:03;;;;;;;6.07;1.63;;;12.50;92.00;;;;;;5009004;28;20030;-69
2021/10/01 00:59:29;;;;;;;2.60;1.55;;;12.40;92.10;;;;;;5007447;28;20371;-69
2021/10/01 01:01:55;;;;;;;3.83;1.10;;;12.50;92.10;;;;;;5004411;28;20033;-69
2021/10/01 01:04:21;;;;;;;7.20;1.80;;;12.50;91.90;;;;;;5007894;28;20029;-69
2021/10/01 01:07:18;;;;;;;6.18;1.30;;;12.50;91.80;;;;;;5006613;28;20033;-69
2021/10/01 01:10:16;;;;;;;3.22;1.27;;;12.50;91.90;;;;;;5006205;28;20487;-69
2021/10/01 01:12:54;;;;;;;5.30;1.55;;;12.50;91.70;;;;;;5006582;28;20913;-69
2021/10/01 01:15:31;;;;;;;8.05;1.73;;;12.50;91.80;;;;;;5006703;28;20067;-69
2021/10/01 01:18:13;;;;;;;5.45;1.10;;;12.50;91.70;;;;;;5008065;28;20076;-69
2021/10/01 01:20:50;;;;;;;3.45;1.42;;;12.60;91.40;;;;;;5007095;28;20026;-69
2021/10/01 01:23:22;;;;;;;5.32;1.30;;;12.60;91.60;;;;;;5005326;28;20030;-69
2021/10/01 01:25:57;;;;;;;6.15;1.35;;;12.50;91.70;;;;;;5006851;28;20069;-69
2021/10/01 01:28:48;;;;;;;4.65;1.20;;;12.50;91.80;;;;;;5006664;28;20068;-69
2021/10/01 01:31:19;;;;;;;6.22;1.02;;;12.50;91.60;;;;;;4998696;28;20045;-69
2021/10/01 01:33:46;;;;;;;2.53;1.10;;;12.50;91.90;;;;;;5006122;28;20083;-69
2021/10/01 01:36:14;;;;;;;4.35;1.30;;;12.60;91.70;;;;;;5005612;28;20546;-69
2021/10/01 01:38:46;;;;;;;3.40;1.00;;;12.60;91.70;;;;;;5005612;28;20017;-69
2021/10/01 01:41:14;;;;;;;4.28;1.33;;;12.60;91.70;;;;;;5004906;28;20030;-69
2021/10/01 01:43:41;;;;;;;4.53;1.08;;;12.60;91.70;;;;;;5006708;28;20030;-69
2021/10/01 01:46:08;;;;;;;3.25;0.98;;;12.70;91.30;;;;;;4996297;28;20076;-69
2021/10/01 01:48:35;;;;;;;4.45;1.17;;;12.70;91.10;;;;;;5007207;28;20124;-69
2021/10/01 01:51:02;;;;;;;5.22;1.30;;;12.70;91.40;;;;;;5007633;28;20022;-69
2021/10/01 01:53:29;;;;;;;6.97;1.33;;;12.70;91.30;;;;;;5005756;28;20030;-69
2021/10/01 01:55:56;;;;;;;3.72;1.30;;;12.60;91.60;;;;;;5006452;28;20048;-69
2021/10/01 01:58:23;;;;;;;7.47;1.88;;;12.60;91.50;;;;;;5005587;28;20040;-70
2021/10/01 02:00:49;;;;;;;7.20;1.77;;;12.60;91.40;;;;;;5005135;28;20029;-69
2021/10/01 02:03:16;;;;;;;9.80;1.30;;;12.60;91.30;;;;;;5004295;28;20076;-69
2021/10/01 02:05:45;;;;;;;8.98;1.45;;;12.60;91.30;;;;;;5006665;28;20034;-69
2021/10/01 02:08:12;;;;;;;6.97;1.58;;;12.70;91.10;;;;;;5005484;28;20475;-69
2021/10/01 02:10:38;;;;;;;4.00;1.40;;;12.70;91.20;;;;;;5006299;28;20041;-69
2021/10/01 02:13:09;;;;;;;5.03;1.23;;;12.70;91.20;;;;;;5006241;28;20407;-69
2021/10/01 02:15:38;;;;;;;3.05;1.17;;;12.70;91.20;;;;;;5007769;28;20107;-70
2021/10/01 02:18:06;;;;;;;2.75;1.30;;;12.70;91.20;;;;;;5006437;28;20438;-69
2021/10/01 02:20:35;;;;;;;6.00;1.42;;;12.70;91.20;;;;;;5010129;28;20109;-69
2021/10/01 02:23:02;;;;;;;4.50;1.10;;;12.60;91.20;;;;;;5010975;28;20546;-69
2021/10/01 02:28:24;;;;;;;3.13;1.00;;;12.60;91.30;;;;;;5010108;28;20479;-69
2021/10/01 02:30:52;;;;;;;5.45;1.15;;;12.60;91.30;;;;;;5009279;28;20116;-69
2021/10/01 02:33:42;;;;;;;2.72;1.00;;;12.60;90.80;;;;;;5010602;28;20040;-68
2021/10/01 02:36:08;;;;;;;7.88;1.20;;;12.70;90.90;;;;;;5010938;28;20044;-68
2021/10/01 02:38:34;;;;;;;4.35;1.40;;;12.60;91.00;;;;;;4992946;28;20021;-68
2021/10/01 02:41:00;;;;;;;5.47;1.38;;;12.60;90.90;;;;;;5011703;28;20022;-68
2021/10/01 02:43:26;;;;;;;9.40;1.45;;;12.50;91.00;;;;;;5009969;28;20034;-69
2021/10/01 02:45:52;;;;;;;5.68;1.70;;;12.60;91.10;;;;;;5010709;28;20457;-69
2021/10/01 02:48:18;;;;;;;6.20;1.63;;;12.60;91.00;;;;;;5011379;28;20042;-68
2021/10/01 02:50:50;;;;;;;4.20;1.25;;;12.60;91.10;;;;;;5011196;28;20028;-69
2021/10/01 02:53:26;;;;;;;5.05;1.33;;;12.60;91.30;;;;;;5010916;28;20029;-68
2021/10/01 02:56:05;;;;;;;5.03;1.60;;;12.60;91.30;;;;;;5009414;28;20049;-68
2021/10/01 02:58:38;;;;;;;7.20;1.38;;;12.60;91.10;;;;;;5010989;28;20018;-68
2021/10/01 03:01:06;;;;;;;3.83;1.23;;;12.60;91.20;;;;;;5008334;28;20033;-68
2021/10/01 03:03:37;;;;;;;3.67;1.15;;;12.60;91.10;;;;;;5007702;28;20099;-68
2021/10/01 03:06:04;;;;;;;5.05;1.00;;;12.60;90.90;;;;;;4993007;28;20041;-69
2021/10/01 03:08:32;;;;;;;6.63;1.38;;;12.60;91.00;;;;;;5010375;28;20037;-68
2021/10/01 03:10:59;;;;;;;5.82;1.23;;;12.60;91.10;;;;;;5009580;28;20040;-68
2021/10/01 03:13:26;;;;;;;4.00;1.17;;;12.70;90.70;;;;;;5009555;28;20591;-68
2021/10/01 03:15:55;;;;;;;2.72;1.10;;;12.60;91.00;;;;;;5009010;28;20491;-68
2021/10/01 03:18:21;;;;;;;4.00;1.42;;;12.60;90.90;;;;;;5010737;28;20030;-69
2021/10/01 03:20:48;;;;;;;5.07;1.33;;;12.50;90.80;;;;;;5009514;28;20113;-69
2021/10/01 03:23:16;;;;;;;7.05;1.25;;;12.50;91.00;;;;;;4993406;28;20377;-69
2021/10/01 03:25:42;;;;;;;5.43;1.25;;;12.50;91.00;;;;;;5009154;28;20092;-69
2021/10/01 03:28:10;;;;;;;2.33;0.95;;;12.50;91.20;;;;;;5008217;28;20026;-68
2021/10/01 03:30:36;;;;;;;4.75;1.30;;;12.40;90.90;;;;;;5008537;28;20038;-69
2021/10/01 03:33:02;;;;;;;7.13;1.08;;;12.50;91.10;;;;;;4975222;28;20045;-69
2021/10/01 03:35:27;;;;;;;5.90;1.20;;;12.40;91.40;;;;;;5009374;28;20022;-69
2021/10/01 03:37:53;;;;;;;4.85;1.73;;;12.40;91.20;;;;;;5009928;28;20030;-70
2021/10/01 03:40:20;;;;;;;5.10;1.15;;;12.40;91.30;;;;;;5009790;28;20726;-69
2021/10/01 03:42:46;;;;;;;4.53;1.10;;;12.40;91.20;;;;;;5002486;28;20026;-69
2021/10/01 03:45:12;;;;;;;6.40;1.27;;;12.30;91.40;;;;;;5004234;28;20053;-69
2021/10/01 03:47:39;;;;;;;2.63;1.15;;;12.40;91.20;;;;;;5008937;28;20045;-69
2021/10/01 03:50:05;;;;;;;8.88;1.33;;;12.30;91.30;;;;;;5008797;28;20038;-68
2021/10/01 03:52:32;;;;;;;6.30;1.20;;;12.40;91.20;;;;;;5009911;28;20120;-68
2021/10/01 03:54:58;;;;;;;7.80;1.65;;;12.30;91.30;;;;;;5009852;28;20025;-68
2021/10/01 03:57:24;;;;;;;6.18;1.70;;;12.30;91.10;;;;;;5010388;28;20033;-68
2021/10/01 03:59:50;;;;;;;4.07;1.92;;;12.20;91.30;;;;;;5010662;28;20128;-69
2021/10/01 04:02:15;;;;;;;4.60;1.50;;;12.20;91.30;;;;;;5005959;28;20053;-69
2021/10/01 04:04:41;;;;;;;7.50;2.00;;;12.20;91.40;;;;;;5009385;28;20026;-68
2021/10/01 04:07:07;;;;;;;5.25;1.77;;;12.20;91.40;;;;;;5010355;28;20490;-68
2021/10/01 04:09:33;;;;;;;2.92;1.05;;;12.20;91.30;;;;;;5010410;28;20026;-69
2021/10/01 04:11:59;;;;;;;1.92;1.20;;;12.20;91.30;;;;;;5007734;28;20549;-68
2021/10/01 04:14:25;;;;;;;6.28;1.20;;;12.20;91.30;;;;;;5007893;28;20484;-69
2021/10/01 04:16:52;;;;;;;3.42;1.10;;;12.20;91.30;;;;;;5010435;28;20032;-67
2021/10/01 04:19:18;;;;;;;3.60;1.17;;;12.20;91.40;;;;;;5010556;28;20309;-67
2021/10/01 04:21:45;;;;;;;4.85;1.33;;;12.20;91.50;;;;;;5010490;28;20038;-68
2021/10/01 04:24:11;;;;;;;7.50;1.00;;;12.10;91.70;;;;;;5008147;28;20026;-68
2021/10/01 04:26:38;;;;;;;3.63;1.10;;;12.10;91.60;;;;;;5001967;28;20908;-69
2021/10/01 04:29:04;;;;;;;2.33;1.08;;;12.10;91.60;;;;;;5002998;28;20030;-68
2021/10/01 04:31:30;;;;;;;5.68;1.30;;;12.10;91.80;;;;;;5006972;28;20038;-67
2021/10/01 04:33:56;;;;;;;5.50;1.50;;;12.00;91.60;;;;;;5005513;28;20030;-69
2021/10/01 04:36:22;;;;;;;6.03;1.25;;;12.00;91.70;;;;;;4999835;28;20034;-68
2021/10/01 04:38:49;;;;;;;6.53;1.33;;;12.00;91.60;;;;;;5004914;28;20027;-68
2021/10/01 04:41:15;;;;;;;7.07;1.63;;;12.10;91.80;;;;;;5004469;28;20523;-68
2021/10/01 04:43:41;;;;;;;5.10;1.20;;;12.10;91.50;;;;;;5005160;28;20650;-69
2021/10/01 04:46:07;;;;;;;4.22;1.42;;;12.20;91.40;;;;;;5008044;28;20026;-68
2021/10/01 04:48:33;;;;;;;5.32;1.17;;;12.20;91.30;;;;;;5006874;28;20041;-68
2021/10/01 04:50:59;;;;;;;2.38;1.10;;;12.20;91.20;;;;;;5006732;28;20041;-68
2021/10/01 04:53:24;;;;;;;4.20;1.52;;;12.20;91.30;;;;;;5007041;28;20025;-69
2021/10/01 04:55:50;;;;;;;9.32;1.65;;;12.10;91.20;;;;;;5007910;28;20439;-68
2021/10/01 04:58:16;;;;;;;5.75;1.35;;;12.20;91.30;;;;;;5007971;28;20069;-68
2021/10/01 05:00:42;;;;;;;3.28;1.13;;;12.30;91.00;;;;;;4987374;28;20022;-68
2021/10/01 05:03:08;;;;;;;5.13;1.33;;;12.20;91.20;;;;;;5004096;28;20050;-68
2021/10/01 05:05:33;;;;;;;3.78;1.20;;;12.20;91.10;;;;;;5009579;28;20045;-68
2021/10/01 05:08:01;;;;;;;6.20;1.27;;;12.20;91.10;;;;;;5010270;28;20102;-68
2021/10/01 05:10:26;;;;;;;4.30;0.82;;;12.30;90.90;;;;;;5010539;28;20081;-68
2021/10/01 05:12:52;;;;;;;6.30;1.58;;;12.20;90.90;;;;;;5007646;28;20029;-68
2021/10/01 05:15:18;;;;;;;3.60;1.10;;;12.20;91.00;;;;;;5009912;28;20120;-68
2021/10/01 05:17:45;;;;;;;4.57;1.30;;;12.20;90.90;;;;;;4989401;28;20412;-69
2021/10/01 05:20:12;;;;;;;3.28;0.95;;;12.20;91.20;;;;;;5007772;28;20026;-69
2021/10/01 05:22:39;;;;;;;5.05;1.50;;;12.30;91.00;;;;;;5010060;28;20037;-69
2021/10/01 05:25:06;;;;;;;9.00;1.73;;;12.20;91.00;;;;;;5008117;28;20037;-68
2021/10/01 05:27:32;;;;;;;4.97;1.25;;;12.20;91.00;;;;;;4989489;28;20029;-68
2021/10/01 05:29:58;;;;;;;5.10;1.30;;;12.20;90.90;;;;;;5006380;28;20034;-67
2021/10/01 05:32:23;;;;;;;5.10;1.35;;;12.20;91.00;;;;;;5008275;28;20518;-68
2021/10/01 05:34:49;;;;;;;6.32;1.30;;;12.20;91.00;;;;;;5008661;28;20030;-68
2021/10/01 05:37:15;;;;;;;4.10;1.17;;;12.20;90.90;;;;;;5008249;28;20053;-69
2021/10/01 05:39:41;;;;;;;8.05;1.25;;;12.30;90.80;;;;;;5006686;28;20036;-68
2021/10/01 05:42:07;;;;;;;2.25;1.20;;;12.20;90.80;;;;;;5007969;28;20022;-67
2021/10/01 05:44:32;;;;;;;8.93;1.35;;;12.20;90.90;;;;;;4993309;28;20080;-68
2021/10/01 05:47:02;;;;;;;9.02;1.30;;;12.20;91.00;;;;;;5007579;28;20034;-68
2021/10/01 05:49:42;;;;;;;3.53;1.35;;;12.20;91.00;;;;;;5005079;28;20032;-68
2021/10/01 05:52:56;;;;;;;4.07;1.40;;;12.20;91.10;;;;;;5008650;28;20435;-69
2021/10/01 05:54:59;;;;;;;;;;;12.20;91.00;;;;;;4999257;28;20045;-68
2021/10/01 05:57:26;;;;;;;2.53;1.27;;;12.20;91.40;;;;;;4996771;28;19909;-67
2021/10/01 05:59:52;;;;;;;12.95;1.58;;;12.20;91.70;;;;;;5012316;28;20018;-68
2021/10/01 06:02:20;;;;;;;4.40;1.63;;;12.20;91.30;;;;;;5011647;28;20026;-69
2021/10/01 06:04:47;;;;;;;4.90;1.60;;;12.30;91.10;;;;;;5010523;28;20041;-69
2021/10/01 06:07:13;;;;;;;5.10;1.42;;;12.20;91.10;;;;;;5013706;28;20396;-68
2021/10/01 06:09:41;;;;;;;4.10;1.42;;;12.20;91.30;;;;;;5013587;28;20029;-68
2021/10/01 06:12:08;;;;;;;7.50;1.58;;;12.20;91.30;;;;;;5011031;28;20104;-69
2021/10/01 06:14:35;;;;;;;4.10;1.65;;;12.20;91.30;;;;;;5011386;28;20038;-69
2021/10/01 06:17:02;;;;;;;2.22;0.95;;;12.20;91.20;;;;;;5011453;28;20105;-69
2021/10/01 06:19:28;;;;;;;5.30;1.42;;;12.20;91.20;;;;;;5013135;28;20030;-68
2021/10/01 06:21:56;;;;;;;3.53;1.00;;;12.20;91.20;;;;;;5013324;28;20120;-68
2021/10/01 06:24:22;;;;;;;8.10;1.58;;;12.30;91.20;;;;;;5006015;28;20088;-67
2021/10/01 06:26:48;;;;;;;8.02;1.33;;;12.30;91.20;;;;;;5005932;28;20042;-68
2021/10/01 06:29:15;;;;;;;6.68;1.40;;;12.30;91.30;;;;;;5004402;28;20064;-68
2021/10/01 06:31:42;;;;;;;4.70;1.45;;;12.30;91.20;;;;;;5009072;28;20921;-68
2021/10/01 06:34:08;;;;;;;5.20;1.52;;;12.20;91.30;;;;;;5010997;28;20108;-68
2021/10/01 06:36:35;;;;;;;3.90;1.02;;;12.20;91.40;;;;;;5012236;28;20101;-67
2021/10/01 06:39:00;;;;;;;6.97;1.45;;;12.20;91.40;;;;;;5012763;28;20021;-68
2021/10/01 06:41:26;;;;;;;5.07;1.15;;;12.30;91.40;;;;;;5010810;28;20030;-71
2021/10/01 06:43:58;;;;;;;5.65;1.40;;;12.30;91.40;;;;;;5007421;28;20080;-68
2021/10/01 07:22:31;;;;;;;6.60;1.25;;;12.60;91.10;;;;;;5010528;28;20034;-68
2021/10/01 08:19:37;;;;;;;3.75;0.90;;;13.30;89.60;;;;;;5002744;28;20034;-67
2021/10/01 08:22:03;;;;;;;4.13;1.27;;;13.30;89.60;;;;;;5006122;28;20045;-69
2021/10/01 08:24:30;;;;;;;6.18;1.52;;;13.30;89.20;;;;;;5002849;28;20045;-67
2021/10/01 08:26:56;;;;;;;3.28;1.17;;;13.40;88.90;;;;;;5005026;28;20044;-67
2021/10/01 08:29:22;;;;;;;5.03;1.50;;;13.50;88.10;;;;;;5005845;28;20049;-67
2021/10/01 08:31:49;;;;;;;3.03;0.80;;;13.50;88.80;;;;;;5009480;28;20034;-67
2021/10/01 08:34:16;;;;;;;12.05;1.63;;;13.50;88.10;;;;;;5010125;28;20049;-68
2021/10/01 08:36:43;;;;;;;9.48;1.38;;;13.60;88.70;;;;;;5009017;28;20622;-67
2021/10/01 08:39:09;;;;;;;2.25;1.20;;;13.60;88.20;;;;;;5001364;28;20105;-67
2021/10/01 08:41:37;;;;;;;3.83;1.10;;;13.60;88.20;;;;;;5008963;28;20109;-67
2021/10/01 08:44:04;;;;;;;5.50;1.73;;;13.70;87.30;;;;;;5006327;28;20036;-67
2021/10/01 08:46:30;;;;;;;4.97;1.15;;;13.70;87.70;;;;;;5004598;28;20022;-67
2021/10/01 08:48:59;;;;;;;7.32;1.65;;;13.70;87.60;;;;;;5007889;28;20041;-67
2021/10/01 08:51:26;;;;;;;4.03;1.30;;;13.70;88.30;;;;;;5007451;28;20018;-66
2021/10/01 08:53:56;;;;;;;4.93;1.33;;;13.70;87.80;;;;;;4991979;28;20025;-66
2021/10/01 08:56:24;;;;;;;5.22;1.27;;;13.70;88.20;;;;;;4990756;28;20088;-67
2021/10/01 08:58:50;;;;;;;11.15;1.73;;;13.80;88.10;;;;;;5006822;28;20029;-69
2021/10/01 09:01:16;;;;;;;4.20;1.23;;;13.80;88.10;;;;;;5005712;28;20026;-66
2021/10/01 09:03:45;;;;;;;6.20;1.30;;;13.90;87.50;;;;;;5006414;28;20095;-66
2021/10/01 09:06:11;;;;;;;4.47;1.27;;;13.90;87.10;;;;;;5009328;28;20057;-69
2021/10/01 09:09:00;;;;;;;6.80;1.50;;;14.00;87.40;;;;;;5008917;28;20046;-66
2021/10/01 09:11:28;;;;;;;3.97;1.05;;;14.10;86.90;;;;;;5005907;28;20212;-70
2021/10/01 09:13:55;;;;;;;5.18;1.25;;;14.10;87.60;;;;;;5008656;28;20037;-66
2021/10/01 09:16:21;;;;;;;4.75;1.50;;;14.10;87.50;;;;;;5006752;28;20827;-68
2021/10/01 09:18:48;;;;;;;6.15;1.23;;;14.20;87.00;;;;;;5006869;28;20034;-68
2021/10/01 09:21:17;;;;;;;5.28;1.60;;;14.30;87.70;;;;;;5006917;28;20030;-66
2021/10/01 09:23:52;;;;;;;7.97;2.03;;;14.50;86.50;;;;;;5008693;28;20570;-68
2021/10/01 09:26:21;;;;;;;8.20;1.30;;;14.60;85.60;;;;;;5005613;28;20038;-68
2021/10/01 09:28:52;;;;;;;4.30;1.20;;;14.70;85.40;;;;;;5006401;28;20030;-66
2021/10/01 09:31:37;;;;;;;4.13;1.13;;;14.80;84.50;;;;;;5006076;28;20030;-66
2021/10/01 09:34:06;;;;;;;6.53;1.10;;;14.80;85.90;;;;;;5008094;28;20038;-67
2021/10/01 09:36:32;;;;;;;3.92;1.02;;;14.80;85.40;;;;;;5007996;28;20391;-67
2021/10/01 09:38:58;;;;;;;5.50;1.20;;;15.10;85.70;;;;;;5009550;28;20084;-66
2021/10/01 09:41:26;;;;;;;3.20;1.05;;;15.10;84.60;;;;;;5003751;28;20037;-66
2021/10/01 09:44:08;;;;;;;4.07;0.93;;;15.20;85.30;;;;;;5007740;28;20034;-67
2021/10/01 09:46:49;;;;;;;4.18;1.60;;;15.20;85.50;;;;;;5005571;28;20125;-67
2021/10/01 09:49:17;;;;;;;5.13;1.25;;;15.30;84.70;;;;;;5004232;28;20042;-67
2021/10/01 09:51:54;;;;;;;5.55;1.10;;;15.40;83.50;;;;;;5004744;28;20030;-66
2021/10/01 09:54:22;;;;;;;4.43;1.10;;;15.50;83.00;;;;;;5003730;28;20040;-66
2021/10/01 09:56:49;;;;;;;3.70;1.35;;;15.70;83.20;;;;;;4998950;28;20080;-66
2021/10/01 09:59:22;;;;;;;2.80;0.88;;;15.80;82.60;;;;;;4999638;28;20487;-67
2021/10/01 10:02:05;;;;;;;4.82;1.10;;;15.80;83.20;;;;;;4995107;28;20540;-67
2021/10/01 10:04:51;;;;;;;3.63;1.10;;;15.90;81.00;;;;;;4999779;28;20041;-67
2021/10/01 10:07:19;;;;;;;4.15;1.00;;;16.00;80.90;;;;;;5003756;28;20055;-66
2021/10/01 10:10:04;;;;;;;5.55;1.40;;;16.10;79.90;;;;;;5009484;28;20026;-67
2021/10/01 10:12:33;;;;;;;5.32;1.45;;;16.20;79.60;;;;;;5001016;28;20460;-67
2021/10/01 10:14:59;;;;;;;3.85;1.30;;;16.30;80.50;;;;;;5005926;28;20025;-66
2021/10/01 10:17:29;;;;;;;4.65;0.90;;;16.30;80.60;;;;;;5008582;28;20053;-66
2021/10/01 10:19:57;;;;;;;7.18;1.50;;;16.40;80.10;;;;;;5005938;28;20091;-67
2021/10/01 10:22:25;;;;;;;4.70;1.65;;;16.50;80.30;;;;;;5005788;28;20026;-67
2021/10/01 10:24:51;;;;;;;3.00;0.90;;;16.50;80.40;;;;;;5005518;28;20030;-67
2021/10/01 10:27:18;;;;;;;3.67;1.10;;;16.60;80.50;;;;;;5006007;28;20053;-67
2021/10/01 10:29:46;;;;;;;4.18;1.58;;;16.70;81.60;;;;;;5003663;28;20093;-67
2021/10/01 10:32:14;;;;;;;5.50;1.10;;;16.80;80.90;;;;;;5005634;28;20037;-67
2021/10/01 10:34:53;;;;;;;5.40;1.40;;;16.90;79.40;;;;;;5006219;28;20041;-67
2021/10/01 10:37:21;;;;;;;3.58;1.48;;;17.00;79.90;;;;;;5007719;28;20042;-67
2021/10/01 10:39:53;;;;;;;3.90;1.33;;;17.10;80.00;;;;;;5008709;28;20106;-66
2021/10/01 10:42:20;;;;;;;3.95;1.15;;;17.20;79.10;;;;;;5010572;28;20038;-68
2021/10/01 10:45:01;;;;;;;5.75;1.30;;;17.20;77.60;;;;;;5006964;28;20025;-67
2021/10/01 10:47:50;;;;;;;6.85;1.10;;;17.30;76.50;;;;;;5010054;28;20029;-66
2021/10/01 10:50:22;;;;;;;7.15;1.15;;;17.30;76.20;;;;;;5011519;28;20022;-66
2021/10/01 10:53:18;;;;;;;4.65;1.40;;;17.30;76.60;;;;;;5010100;28;20128;-70
2021/10/01 10:55:50;;;;;;;4.10;1.08;;;17.30;76.70;;;;;;5007140;28;20033;-68
2021/10/01 10:58:24;;;;;;;4.22;1.10;;;17.50;74.10;;;;;;5004301;28;20113;-68
2021/10/01 11:00:55;;;;;;;3.67;1.05;;;17.60;75.50;;;;;;5004577;28;20018;-67
2021/10/01 11:03:23;;;;;;;3.80;1.13;;;17.60;75.00;;;;;;4991913;28;20026;-67
2021/10/01 11:06:11;;;;;;;3.80;1.48;;;17.70;74.90;;;;;;5009346;28;20037;-68
2021/10/01 11:09:12;;;;;;;5.35;1.10;;;17.50;75.40;;;;;;5011350;28;20064;-67
2021/10/01 11:11:46;;;;;;;3.10;1.35;;;17.40;75.80;;;;;;4968502;28;20045;-67
2021/10/01 11:14:19;;;;;;;5.45;2.00;;;17.40;76.10;;;;;;5008763;28;20042;-68
2021/10/01 11:17:07;;;;;;;3.97;1.70;;;17.70;76.70;;;;;;5009640;28;20064;-67
2021/10/01 11:19:38;;;;;;;4.95;0.98;;;17.80;76.40;;;;;;5009261;28;20385;-67
2021/10/01 11:22:26;;;;;;;5.07;1.80;;;18.10;75.10;;;;;;5006982;28;20033;-67
2021/10/01 11:25:06;;;;;;;7.88;1.50;;;18.40;74.30;;;;;;5008362;28;20029;-67
2021/10/01 11:27:45;;;;;;;3.50;1.23;;;18.70;74.70;;;;;;5002691;28;20026;-67
2021/10/01 11:30:11;;;;;;;3.40;1.20;;;19.00;72.10;;;;;;5005831;28;20403;-67
2021/10/01 11:32:37;;;;;;;5.65;1.30;;;19.00;72.00;;;;;;5006372;28;20030;-68
2021/10/01 11:35:03;;;;;;;4.35;1.17;;;19.00;71.20;;;;;;5007619;28;20092;-66
2021/10/01 11:37:33;;;;;;;4.03;1.17;;;19.10;71.30;;;;;;5007123;28;20057;-67
2021/10/01 11:40:06;;;;;;;5.40;1.35;;;19.20;70.50;;;;;;5007727;28;20069;-66
2021/10/01 11:42:38;;;;;;;6.05;1.58;;;19.20;70.50;;;;;;5005166;28;20036;-66
2021/10/01 11:45:19;;;;;;;5.07;1.13;;;19.20;70.10;;;;;;5001633;28;20034;-72
2021/10/01 11:48:09;;;;;;;3.58;1.08;;;19.10;69.20;;;;;;5005936;28;20617;-67
2021/10/01 11:50:41;;;;;;;3.67;0.98;;;19.20;69.00;;;;;;4997294;28;20112;-68
2021/10/01 11:53:15;;;;;;;5.30;1.17;;;19.20;69.60;;;;;;5008666;28;20506;-67
2021/10/01 11:56:03;;;;;;;4.65;1.17;;;19.20;70.40;;;;;;5004222;28;20033;-67
2021/10/01 11:58:31;;;;;;;2.45;0.85;;;19.20;68.90;;;;;;5006434;28;20054;-68
2021/10/01 12:01:17;;;;;;;4.25;0.98;;;19.40;68.00;;;;;;5004816;28;20109;-66
2021/10/01 12:03:54;;;;;;;6.53;1.35;;;19.40;67.60;;;;;;4989614;28;20381;-67
2021/10/01 12:06:26;;;;;;;10.70;2.05;;;19.30;68.80;;;;;;5008144;28;20034;-65
2021/10/01 12:08:54;;;;;;;4.72;1.60;;;19.10;68.80;;;;;;5008594;28;20384;-66
2021/10/01 12:11:40;;;;;;;6.35;1.92;;;18.90;70.40;;;;;;5007248;28;20101;-66
2021/10/01 12:14:17;;;;;;;4.95;1.10;;;18.90;70.30;;;;;;5007620;28;20080;-66
2021/10/01 12:17:06;;;;;;;4.78;1.75;;;18.90;69.60;;;;;;5007781;28;20030;-67
2021/10/01 12:19:33;;;;;;;3.88;0.90;;;18.80;70.40;;;;;;5007740;28;20025;-67
2021/10/01 12:22:10;;;;;;;4.43;1.20;;;18.70;71.00;;;;;;5007325;28;20021;-66
2021/10/01 12:24:51;;;;;;;4.80;1.63;;;18.50;70.30;;;;;;5009511;28;20117;-67
2021/10/01 12:27:19;;;;;;;3.13;1.20;;;18.50;71.20;;;;;;5002285;28;20035;-66
2021/10/01 12:29:48;;;;;;;4.22;1.23;;;18.30;71.80;;;;;;5001702;28;20125;-67
2021/10/01 12:32:16;;;;;;;5.05;1.65;;;18.20;72.20;;;;;;5006323;28;20050;-66
2021/10/01 12:34:55;;;;;;;5.32;1.30;;;18.20;71.60;;;;;;5005479;28;20042;-67
2021/10/01 12:37:23;;;;;;;2.70;0.93;;;18.20;71.30;;;;;;5005838;28;20112;-67
2021/10/01 12:39:58;;;;;;;6.75;1.30;;;18.10;71.30;;;;;;5005789;28;20528;-67
2021/10/01 12:42:30;;;;;;;3.05;0.60;;;18.00;72.00;;;;;;5006573;28;20026;-67
2021/10/01 12:45:09;;;;;;;5.15;1.10;;;18.10;72.00;;;;;;5007971;28;20033;-66
2021/10/01 12:47:37;;;;;;;3.78;1.38;;;18.10;72.10;;;;;;5002894;28;20040;-67
2021/10/01 12:50:08;;;;;;;5.53;1.00;;;18.20;72.20;;;;;;4996714;28;20038;-68
2021/10/01 12:52:35;;;;;;;4.82;1.20;;;18.30;72.10;;;;;;4995576;28;20137;-66
2021/10/01 12:55:08;;;;;;;4.35;1.13;;;18.30;72.60;;;;;;5005918;28;20045;-66
2021/10/01 12:57:45;;;;;;;4.57;1.35;;;18.30;71.30;;;;;;5008501;28;20032;-66
2021/10/01 13:00:21;;;;;;;6.50;1.17;;;18.30;71.50;;;;;;5006681;28;20922;-68
2021/10/01 13:03:13;;;;;;;7.60;1.27;;;18.30;70.80;;;;;;5007017;28;20139;-67
2021/10/01 13:05:43;;;;;;;4.53;0.90;;;18.20;71.90;;;;;;5001706;28;20108;-68
2021/10/01 13:08:17;;;;;;;4.85;1.00;;;18.10;72.40;;;;;;5007860;28;20041;-69
2021/10/01 13:11:09;;;;;;;4.35;1.13;;;18.20;72.60;;;;;;5003012;28;20041;-66
2021/10/01 13:13:36;;;;;;;2.85;0.90;;;18.20;71.50;;;;;;5003225;28;20513;-68
2021/10/01 13:16:13;;;;;;;4.85;1.17;;;18.20;71.00;;;;;;5004697;28;20109;-67
2021/10/01 13:18:42;;;;;;;9.88;1.30;;;18.10;71.30;;;;;;4990511;28;20529;-67
2021/10/01 13:21:10;;;;;;;4.43;1.20;;;18.00;70.70;;;;;;5008634;28;20058;-68
2021/10/01 13:23:56;;;;;;;4.20;1.17;;;18.00;70.70;;;;;;4991618;28;20558;-71
2021/10/01 13:26:22;;;;;;;4.93;1.08;;;17.90;71.20;;;;;;5001687;28;20033;-68
2021/10/01 13:28:50;;;;;;;3.67;1.20;;;17.80;73.00;;;;;;5002670;28;20033;-69
2021/10/01 13:31:18;;;;;;;3.38;1.02;;;17.80;72.60;;;;;;5008044;28;20080;-68
2021/10/01 13:33:45;;;;;;;3.65;1.08;;;17.80;73.30;;;;;;5008029;28;20032;-74
2021/10/01 13:36:11;;;;;;;4.82;1.67;;;17.70;73.30;;;;;;5001531;28;21451;-68
2021/10/01 13:38:40;;;;;;;3.90;1.42;;;17.60;72.90;;;;;;5007020;28;20508;-67
2021/10/01 13:41:07;;;;;;;4.53;0.95;;;17.60;72.50;;;;;;5007591;28;20132;-69
2021/10/01 13:43:35;;;;;;;5.07;1.50;;;17.60;72.00;;;;;;5004093;28;20034;-68
2021/10/01 13:46:02;;;;;;;3.45;1.00;;;17.50;72.10;;;;;;4988073;28;20025;-68
2021/10/01 13:48:28;;;;;;;7.50;1.88;;;17.50;72.40;;;;;;5004712;28;20109;-69
2021/10/01 13:50:54;;;;;;;2.72;1.30;;;17.50;72.60;;;;;;5005869;28;20109;-68
2021/10/01 13:53:22;;;;;;;3.78;1.10;;;17.50;72.90;;;;;;4998308;28;20095;-69
2021/10/01 13:55:48;;;;;;;5.35;1.10;;;17.60;73.60;;;;;;5007095;28;20508;-68
2021/10/01 13:58:15;;;;;;;5.45;0.90;;;17.70;73.70;;;;;;5005287;28;20045;-70
2021/10/01 14:00:41;;;;;;;3.75;1.05;;;17.70;73.80;;;;;;5004245;28;20034;-68
2021/10/01 14:03:07;;;;;;;4.70;0.90;;;17.80;72.60;;;;;;4998686;28;20091;-68
2021/10/01 14:05:33;;;;;;;4.30;1.13;;;17.70;72.50;;;;;;5005770;28;20053;-68
2021/10/01 14:07:59;;;;;;;3.13;1.10;;;17.70;72.40;;;;;;5006556;28;20040;-68
2021/10/01 14:10:27;;;;;;;4.03;0.98;;;17.60;72.40;;;;;;5009615;28;20077;-68
2021/10/01 14:12:54;;;;;;;2.88;0.90;;;17.50;72.40;;;;;;5008056;28;20034;-68
2021/10/01 14:15:21;;;;;;;3.83;1.13;;;17.50;73.10;;;;;;5011212;28;20610;-69
2021/10/01 14:17:48;;;;;;;2.88;0.88;;;17.40;72.90;;;;;;5014307;28;20468;-68
2021/10/01 14:20:17;;;;;;;5.30;1.13;;;17.40;72.70;;;;;;5013120;28;20026;-70
2021/10/01 14:22:44;;;;;;;4.50;1.40;;;17.50;72.60;;;;;;5008868;28;20022;-67
2021/10/01 14:25:12;;;;;;;9.13;1.05;;;17.40;72.80;;;;;;5012514;28;20037;-69
2021/10/01 14:27:38;;;;;;;3.45;1.20;;;17.50;73.10;;;;;;5011892;28;20018;-68
2021/10/01 14:30:10;;;;;;;2.50;0.90;;;17.40;72.90;;;;;;5013009;28;20097;-69
2021/10/01 14:32:36;;;;;;;5.53;1.20;;;17.30;73.70;;;;;;5011057;28;20028;-68
2021/10/01 14:35:03;;;;;;;3.72;1.20;;;17.40;73.00;;;;;;5012791;28;20026;-69